createdAt,value
2023-02-21T00:02:45.892Z,9.60
2023-02-21T00:05:32.583Z,9.62
2023-02-21T00:08:19.563Z,9.61
2023-02-21T00:11:06.213Z,9.66
2023-02-21T00:13:57.439Z,9.74
2023-02-21T00:16:44.274Z,9.60
2023-02-21T00:19:31.166Z,9.69
2023-02-21T00:22:18.062Z,9.87
2023-02-21T00:25:05.176Z,9.97
2023-02-21T00:27:52.189Z,10.01
2023-02-21T00:30:39.859Z,10.03
2023-02-21T00:33:26.743Z,9.70
2023-02-21T00:36:13.565Z,9.62
2023-02-21T00:39:00.313Z,9.68
2023-02-21T00:41:47.589Z,9.67
2023-02-21T00:44:33.981Z,9.59
2023-02-21T00:47:20.776Z,9.42
2023-02-21T00:50:07.591Z,9.37
2023-02-21T00:52:54.193Z,9.40
2023-02-21T00:55:40.903Z,9.31
2023-02-21T00:58:27.707Z,9.08
2023-02-21T01:01:14.318Z,9.10
2023-02-21T01:04:01.330Z,9.21
2023-02-21T01:06:48.273Z,9.14
2023-02-21T01:09:36.276Z,9.10
2023-02-21T01:12:23.609Z,9.16
2023-02-21T01:15:10.516Z,9.27
2023-02-21T01:17:57.098Z,9.18
2023-02-21T01:20:43.823Z,9.13
2023-02-21T01:23:30.428Z,9.09
2023-02-21T01:26:16.962Z,9.22
2023-02-21T01:29:03.743Z,9.27
2023-02-21T01:31:51.387Z,9.44
2023-02-21T01:34:37.999Z,9.57
2023-02-21T01:37:25.347Z,9.65
2023-02-21T01:40:12.737Z,9.63
2023-02-21T01:43:01.714Z,9.48
2023-02-21T01:46:01.187Z,9.39
2023-02-21T01:48:50.140Z,9.14
2023-02-21T01:51:40.289Z,8.90
2023-02-21T01:54:28.991Z,9.05
2023-02-21T01:57:19.829Z,9.24
2023-02-21T02:00:09.470Z,9.28
2023-02-21T02:03:19.233Z,9.33
2023-02-21T02:06:12.384Z,9.15
2023-02-21T02:08:59.551Z,9.05
2023-02-21T02:12:26.159Z,9.00
2023-02-21T02:15:03.354Z,9.25
2023-02-21T02:18:01.915Z,9.73
2023-02-21T02:20:38.886Z,10.17
2023-02-21T02:23:31.444Z,10.37
2023-02-21T02:26:33.397Z,10.52
2023-02-21T02:29:05.681Z,10.64
2023-02-21T02:31:52.371Z,10.67
2023-02-21T02:34:40.539Z,10.69
2023-02-21T02:37:23.336Z,10.66
2023-02-21T02:40:12.591Z,10.60
2023-02-21T02:42:55.825Z,10.64
2023-02-21T02:45:48.707Z,10.57
2023-02-21T02:48:21.184Z,10.53
2023-02-21T02:50:51.697Z,10.42
2023-02-21T02:53:22.753Z,10.29
2023-02-21T02:55:56.558Z,10.16
2023-02-21T02:58:31.459Z,10.03
2023-02-21T03:01:08.951Z,10.01
2023-02-21T03:03:53.150Z,10.00
2023-02-21T03:06:30.317Z,10.04
2023-02-21T03:09:39.769Z,10.15
2023-02-21T03:12:24.537Z,10.11
2023-02-21T03:15:17.431Z,10.20
2023-02-21T03:17:53.996Z,10.33
2023-02-21T03:20:23.091Z,10.40
2023-02-21T03:22:52.597Z,10.47
2023-02-21T03:25:23.561Z,10.48
2023-02-21T03:27:55.604Z,10.49
2023-02-21T03:30:27.685Z,10.45
2023-02-21T03:32:56.853Z,10.49
2023-02-21T03:35:30.472Z,10.53
2023-02-21T03:37:59.761Z,10.56
2023-02-21T03:40:33.300Z,10.54
2023-02-21T03:43:07.330Z,10.58
2023-02-21T03:45:41.784Z,10.66
2023-02-21T03:48:20.271Z,10.65
2023-02-21T03:50:54.687Z,10.62
2023-02-21T03:53:23.203Z,10.63
2023-02-21T03:55:51.782Z,10.79
2023-02-21T03:58:22.707Z,10.91
2023-02-21T04:00:51.777Z,10.92
2023-02-21T04:03:20.533Z,10.74
2023-02-21T04:05:54.924Z,10.74
2023-02-21T04:08:23.910Z,10.80
2023-02-21T04:10:52.953Z,10.84
2023-02-21T04:13:24.684Z,10.88
2023-02-21T04:15:53.244Z,10.77
2023-02-21T04:18:22.450Z,10.49
2023-02-21T04:20:52.361Z,10.38
2023-02-21T04:23:22.289Z,10.30
2023-02-21T04:25:50.547Z,10.26
2023-02-21T04:28:25.922Z,10.33
2023-02-21T04:30:54.189Z,10.36
2023-02-21T04:33:22.437Z,10.34
2023-02-21T04:35:51.205Z,10.34
2023-02-21T04:38:41.782Z,10.27
2023-02-21T04:41:09.912Z,10.33
2023-02-21T04:43:38.411Z,10.38
2023-02-21T04:46:06.939Z,10.37
2023-02-21T04:48:35.541Z,10.45
2023-02-21T04:51:15.032Z,10.46
2023-02-21T04:53:46.225Z,10.42
2023-02-21T04:56:15.324Z,10.45
2023-02-21T04:58:45.750Z,10.40
2023-02-21T05:01:15.944Z,10.34
2023-02-21T05:03:44.851Z,10.25
2023-02-21T05:06:20.858Z,10.07
2023-02-21T05:08:49.489Z,9.92
2023-02-21T05:11:19.356Z,9.88
2023-02-21T05:13:47.711Z,9.86
2023-02-21T05:16:16.316Z,9.92
2023-02-21T05:18:46.790Z,9.92
2023-02-21T05:21:17.098Z,9.92
2023-02-21T05:23:56.019Z,9.81
2023-02-21T05:26:27.430Z,9.82
2023-02-21T05:28:57.041Z,9.71
2023-02-21T05:31:25.457Z,9.75
2023-02-21T05:33:54.578Z,9.99
2023-02-21T05:36:25.783Z,10.34
2023-02-21T05:38:55.915Z,10.75
2023-02-21T05:41:25.063Z,11.07
2023-02-21T05:43:53.835Z,11.22
2023-02-21T05:46:34.230Z,11.43
2023-02-21T05:49:03.920Z,11.61
2023-02-21T05:51:41.858Z,11.93
2023-02-21T05:54:15.302Z,12.23
2023-02-21T05:56:45.166Z,12.60
2023-02-21T05:59:15.940Z,13.13
2023-02-21T06:01:43.999Z,13.84
2023-02-21T06:04:12.630Z,14.53
2023-02-21T06:06:41.815Z,15.14
2023-02-21T06:09:10.363Z,15.79
2023-02-21T06:11:40.598Z,16.41
2023-02-21T06:14:15.881Z,17.18
2023-02-21T06:16:44.803Z,18.15
2023-02-21T06:19:14.415Z,18.75
2023-02-21T06:21:43.916Z,18.83
2023-02-21T06:24:13.111Z,19.05
2023-02-21T06:26:42.517Z,19.68
2023-02-21T06:29:11.720Z,19.78
2023-02-21T06:31:39.934Z,19.66
2023-02-21T06:34:08.214Z,19.67
2023-02-21T06:36:36.467Z,19.83
2023-02-21T06:39:04.737Z,19.98
2023-02-21T06:41:33.091Z,19.83
2023-02-21T06:44:01.382Z,19.53
2023-02-21T06:46:31.125Z,19.61
2023-02-21T06:48:59.321Z,19.58
2023-02-21T06:51:31.640Z,19.63
2023-02-21T06:54:00.521Z,18.84
2023-02-21T06:56:28.861Z,19.16
2023-02-21T06:58:58.550Z,18.97
2023-02-21T07:01:28.640Z,18.39
2023-02-21T07:03:59.158Z,17.95
2023-02-21T07:06:29.842Z,17.54
2023-02-21T07:08:58.395Z,17.18
2023-02-21T07:11:27.870Z,16.65
2023-02-21T07:13:59.241Z,16.30
2023-02-21T07:16:27.783Z,16.27
2023-02-21T07:18:56.025Z,15.96
2023-02-21T07:21:26.962Z,15.86
2023-02-21T07:23:55.265Z,15.71
2023-02-21T07:26:23.665Z,15.89
2023-02-21T07:28:51.773Z,16.07
2023-02-21T07:31:20.953Z,16.14
2023-02-21T07:33:49.390Z,16.49
2023-02-21T07:36:18.519Z,16.93
2023-02-21T07:38:46.605Z,16.94
2023-02-21T07:41:16.259Z,17.11
2023-02-21T07:43:44.749Z,17.30
2023-02-21T07:46:15.270Z,16.84
2023-02-21T07:48:43.566Z,16.68
2023-02-21T07:51:11.783Z,16.72
2023-02-21T07:53:40.685Z,16.81
2023-02-21T07:56:09.033Z,16.37
2023-02-21T07:58:37.644Z,15.30
2023-02-21T08:01:07.687Z,14.89
2023-02-21T08:03:38.074Z,14.57
2023-02-21T08:06:06.353Z,14.38
2023-02-21T08:08:34.784Z,14.18
2023-02-21T08:11:03.211Z,14.21
2023-02-21T08:13:31.331Z,14.55
2023-02-21T08:15:59.650Z,14.69
2023-02-21T08:18:27.853Z,14.48
2023-02-21T08:20:59.491Z,14.32
2023-02-21T08:23:27.520Z,14.26
2023-02-21T08:25:55.895Z,14.34
2023-02-21T08:28:23.915Z,14.33
2023-02-21T08:30:53.904Z,14.53
2023-02-21T08:33:22.760Z,15.06
2023-02-21T08:35:51.237Z,15.45
2023-02-21T08:38:19.762Z,15.42
2023-02-21T08:40:48.206Z,15.25
2023-02-21T08:43:16.244Z,14.73
2023-02-21T08:45:44.366Z,14.37
2023-02-21T08:48:12.484Z,14.07
2023-02-21T08:50:40.790Z,13.81
2023-02-21T08:53:13.219Z,13.71
2023-02-21T08:55:43.621Z,13.75
2023-02-21T08:58:13.110Z,13.77
2023-02-21T09:00:41.193Z,13.63
2023-02-21T09:03:09.462Z,13.63
2023-02-21T09:05:37.561Z,13.94
2023-02-21T09:08:06.040Z,14.24
2023-02-21T09:10:34.231Z,14.18
2023-02-21T09:13:04.021Z,14.22
2023-02-21T09:15:32.169Z,14.24
2023-02-21T09:18:01.156Z,14.34
2023-02-21T09:20:30.033Z,14.58
2023-02-21T09:22:58.103Z,14.53
2023-02-21T09:25:26.383Z,14.60
2023-02-21T09:27:54.987Z,14.69
2023-02-21T09:30:26.894Z,14.60
2023-02-21T09:32:57.016Z,14.65
2023-02-21T09:35:25.115Z,14.69
2023-02-21T09:37:53.304Z,14.68
2023-02-21T09:40:30.101Z,14.62
2023-02-21T09:43:00.406Z,14.59
2023-02-21T09:45:33.561Z,14.53
2023-02-21T09:48:08.061Z,14.50
2023-02-21T09:50:44.127Z,14.54
2023-02-21T09:53:19.144Z,14.37
2023-02-21T09:55:50.560Z,14.40
2023-02-21T09:58:21.220Z,14.40
2023-02-21T10:00:50.710Z,14.44
2023-02-21T10:03:52.100Z,14.44
2023-02-21T10:06:20.317Z,14.64
2023-02-21T10:08:59.429Z,14.67
2023-02-21T10:11:39.785Z,14.58
2023-02-21T10:14:35.429Z,14.51
2023-02-21T10:17:29.787Z,14.65
2023-02-21T10:20:04.643Z,14.59
2023-02-21T10:22:37.917Z,14.63
2023-02-21T10:25:28.945Z,14.60
2023-02-21T10:27:58.875Z,14.47
2023-02-21T10:30:35.654Z,14.32
2023-02-21T10:33:08.224Z,14.35
2023-02-21T10:35:37.920Z,14.59
2023-02-21T10:38:13.614Z,14.72
2023-02-21T10:40:48.466Z,14.80
2023-02-21T10:43:19.931Z,14.80
2023-02-21T10:46:01.862Z,14.80
2023-02-21T10:48:37.368Z,14.70
2023-02-21T10:51:17.382Z,14.63
2023-02-21T10:53:48.016Z,14.68
2023-02-21T10:56:21.241Z,14.90
2023-02-21T10:58:56.195Z,14.75
2023-02-21T11:01:35.662Z,14.70
2023-02-21T11:04:08.187Z,14.68
2023-02-21T11:06:39.380Z,14.72
2023-02-21T11:09:38.525Z,14.78
2023-02-21T11:12:19.905Z,14.71
2023-02-21T11:14:51.162Z,14.67
2023-02-21T11:17:21.501Z,14.74
2023-02-21T11:19:49.843Z,14.80
2023-02-21T11:22:22.968Z,14.83
2023-02-21T11:25:08.736Z,14.75
2023-02-21T11:27:37.935Z,14.79
2023-02-21T11:30:18.596Z,14.76
2023-02-21T11:32:54.456Z,14.67
2023-02-21T11:35:27.834Z,14.73
2023-02-21T11:37:59.296Z,14.76
2023-02-21T11:40:47.646Z,14.98
2023-02-21T11:43:21.704Z,15.10
2023-02-21T11:46:05.358Z,15.07
2023-02-21T11:48:42.580Z,14.97
2023-02-21T11:51:29.252Z,15.06
2023-02-21T11:53:57.667Z,15.02
2023-02-21T11:56:46.001Z,15.05
2023-02-21T11:59:36.049Z,14.93
2023-02-21T12:02:38.196Z,15.02
2023-02-21T12:05:34.208Z,15.14
2023-02-21T12:08:05.226Z,15.22
2023-02-21T12:11:00.541Z,15.00
2023-02-21T12:13:48.169Z,15.02
2023-02-21T12:16:28.338Z,15.08
2023-02-21T12:19:02.553Z,15.05
2023-02-21T12:21:48.705Z,14.97
2023-02-21T12:24:40.662Z,14.86
2023-02-21T12:27:36.692Z,14.81
2023-02-21T12:30:27.250Z,14.54
2023-02-21T12:33:30.761Z,14.42
2023-02-21T12:36:35.847Z,14.43
2023-02-21T12:39:06.787Z,14.32
2023-02-21T12:41:47.038Z,14.27
2023-02-21T12:44:24.202Z,14.23
2023-02-21T12:47:03.169Z,14.10
2023-02-21T12:50:09.759Z,14.14
2023-02-21T12:52:48.943Z,14.13
2023-02-21T12:55:26.978Z,14.11
2023-02-21T12:58:12.728Z,13.99
2023-02-21T13:00:48.005Z,13.82
2023-02-21T13:03:45.683Z,13.82
2023-02-21T13:06:36.619Z,13.72
2023-02-21T13:09:27.092Z,13.66
2023-02-21T13:12:16.303Z,13.69
2023-02-21T13:14:56.706Z,13.66
2023-02-21T13:17:26.748Z,13.62
2023-02-21T13:19:57.818Z,13.60
2023-02-21T13:23:22.361Z,13.55
2023-02-21T13:26:21.514Z,13.54
2023-02-21T13:28:58.086Z,13.66
2023-02-21T13:31:37.201Z,13.67
2023-02-21T13:34:11.465Z,13.53
2023-02-21T13:36:39.478Z,13.44
2023-02-21T13:39:15.226Z,13.53
2023-02-21T13:41:45.471Z,13.62
2023-02-21T13:44:26.346Z,13.60
2023-02-21T13:46:54.797Z,13.65
2023-02-21T13:49:47.885Z,13.63
2023-02-21T13:52:25.880Z,13.62
2023-02-21T13:55:12.794Z,13.59
2023-02-21T13:57:43.655Z,13.58
2023-02-21T14:00:27.778Z,13.63
2023-02-21T14:02:57.078Z,13.72
2023-02-21T14:05:25.983Z,13.74
2023-02-21T14:08:00.918Z,13.75
2023-02-21T14:10:39.073Z,13.81
2023-02-21T14:13:29.687Z,13.85
2023-02-21T14:16:09.119Z,13.87
2023-02-21T14:18:37.356Z,13.99
2023-02-21T14:21:27.715Z,14.06
2023-02-21T14:24:11.453Z,13.99
2023-02-21T14:26:49.461Z,13.99
2023-02-21T14:29:43.808Z,13.96
2023-02-21T14:32:12.098Z,13.92
2023-02-21T14:34:49.936Z,13.89
2023-02-21T14:37:45.688Z,13.85
2023-02-21T14:40:34.611Z,13.80
2023-02-21T14:43:33.107Z,13.84
2023-02-21T14:46:29.290Z,13.81
2023-02-21T14:49:07.113Z,13.81
2023-02-21T14:52:12.974Z,13.86
2023-02-21T14:54:50.130Z,13.99
2023-02-21T14:57:24.467Z,14.06
2023-02-21T15:00:19.502Z,14.17
2023-02-21T15:03:12.663Z,14.13
2023-02-21T15:06:02.955Z,14.07
2023-02-21T15:08:42.012Z,14.00
2023-02-21T15:11:33.982Z,13.90
2023-02-21T15:14:36.019Z,13.75
2023-02-21T15:17:14.456Z,13.71
2023-02-21T15:19:42.939Z,13.69
2023-02-21T15:22:16.884Z,13.66
2023-02-21T15:25:07.983Z,13.55
2023-02-21T15:27:38.248Z,13.46
2023-02-21T15:30:17.092Z,13.42
2023-02-21T15:33:05.090Z,13.35
2023-02-21T15:35:39.283Z,13.28
2023-02-21T15:38:20.062Z,13.20
2023-02-21T15:40:55.730Z,13.18
2023-02-21T15:43:46.777Z,13.13
2023-02-21T15:46:30.312Z,13.08
2023-02-21T15:49:03.872Z,13.06
2023-02-21T15:51:33.559Z,13.06
2023-02-21T15:54:23.729Z,13.07
2023-02-21T15:57:06.873Z,13.08
2023-02-21T15:59:37.851Z,13.15
2023-02-21T16:02:13.514Z,13.25
2023-02-21T16:04:44.086Z,13.38
2023-02-21T16:07:35.590Z,13.54
2023-02-21T16:10:08.211Z,13.75
2023-02-21T16:12:40.512Z,13.91
2023-02-21T16:15:23.961Z,14.00
2023-02-21T16:18:04.676Z,14.17
2023-02-21T16:20:36.046Z,14.36
2023-02-21T16:23:19.579Z,14.45
2023-02-21T16:26:27.169Z,14.53
2023-02-21T16:29:00.120Z,14.60
2023-02-21T16:31:34.004Z,14.70
2023-02-21T16:34:04.927Z,14.72
2023-02-21T16:36:33.025Z,14.78
2023-02-21T16:39:01.225Z,14.82
2023-02-21T16:41:29.551Z,14.99
2023-02-21T16:43:57.821Z,15.14
2023-02-21T16:46:29.801Z,15.21
2023-02-21T16:49:00.052Z,15.24
2023-02-21T16:51:33.778Z,15.13
2023-02-21T16:54:03.447Z,15.10
2023-02-21T16:56:32.144Z,14.98
2023-02-21T16:59:00.220Z,14.70
2023-02-21T17:01:30.762Z,14.56
2023-02-21T17:03:58.977Z,14.42
2023-02-21T17:06:27.900Z,14.13
2023-02-21T17:08:56.835Z,13.85
2023-02-21T17:11:26.304Z,13.62
2023-02-21T17:13:54.435Z,13.59
2023-02-21T17:16:23.285Z,13.49
2023-02-21T17:18:51.468Z,13.40
2023-02-21T17:21:19.676Z,13.39
2023-02-21T17:23:47.846Z,13.38
2023-02-21T17:26:18.005Z,13.35
2023-02-21T17:28:46.196Z,13.28
2023-02-21T17:31:19.957Z,13.18
2023-02-21T17:33:48.362Z,13.08
2023-02-21T17:36:21.713Z,13.01
2023-02-21T17:38:50.195Z,12.96
2023-02-21T17:41:19.621Z,12.91
2023-02-21T17:43:48.472Z,12.87
2023-02-21T17:46:18.644Z,12.82
2023-02-21T17:48:47.425Z,12.75
2023-02-21T17:51:26.884Z,12.69
2023-02-21T17:53:55.091Z,12.60
2023-02-21T17:56:24.833Z,12.53
2023-02-21T17:58:53.114Z,12.45
2023-02-21T18:01:21.841Z,12.38
2023-02-21T18:03:49.947Z,12.34
2023-02-21T18:06:18.527Z,12.26
2023-02-21T18:08:47.344Z,12.20
2023-02-21T18:11:18.261Z,12.19
2023-02-21T18:13:47.282Z,12.20
2023-02-21T18:16:15.724Z,12.22
2023-02-21T18:18:45.350Z,12.25
2023-02-21T18:21:13.776Z,12.29
2023-02-21T18:23:46.764Z,12.30
2023-02-21T18:26:15.124Z,12.31
2023-02-21T18:28:43.393Z,12.30
2023-02-21T18:31:15.892Z,12.30
2023-02-21T18:33:45.203Z,12.27
2023-02-21T18:36:13.401Z,12.26
2023-02-21T18:38:43.322Z,12.24
2023-02-21T18:41:17.020Z,12.24
2023-02-21T18:43:45.308Z,12.23
2023-02-21T18:46:16.921Z,12.24
2023-02-21T18:48:49.568Z,12.24
2023-02-21T18:51:20.194Z,12.23
2023-02-21T18:53:49.501Z,12.17
2023-02-21T18:56:19.533Z,12.11
2023-02-21T18:58:49.733Z,12.02
2023-02-21T19:01:21.731Z,11.95
2023-02-21T19:03:51.126Z,11.89
2023-02-21T19:06:21.602Z,11.83
2023-02-21T19:08:54.321Z,11.77
2023-02-21T19:11:25.073Z,11.70
2023-02-21T19:13:53.078Z,11.68
2023-02-21T19:16:22.777Z,11.62
2023-02-21T19:18:56.990Z,11.59
2023-02-21T19:21:26.925Z,11.58
2023-02-21T19:23:55.086Z,11.58
2023-02-21T19:26:24.878Z,11.56
2023-02-21T19:28:53.092Z,11.54
2023-02-21T19:31:21.699Z,11.51
2023-02-21T19:33:50.538Z,11.50
2023-02-21T19:36:21.419Z,11.50
2023-02-21T19:38:49.694Z,11.50
2023-02-21T19:41:18.752Z,11.49
2023-02-21T19:43:47.140Z,11.47
2023-02-21T19:46:20.754Z,11.49
2023-02-21T19:48:49.883Z,11.47
2023-02-21T19:51:20.652Z,11.45
2023-02-21T19:53:49.772Z,11.42
2023-02-21T19:56:20.044Z,11.38
2023-02-21T19:58:48.357Z,11.37
2023-02-21T20:01:16.668Z,11.33
2023-02-21T20:03:49.055Z,11.26
2023-02-21T20:06:18.596Z,11.21
2023-02-21T20:08:48.789Z,11.17
2023-02-21T20:11:21.810Z,11.16
2023-02-21T20:13:51.153Z,11.15
2023-02-21T20:16:20.495Z,11.08
2023-02-21T20:18:51.783Z,11.03
2023-02-21T20:21:29.090Z,11.00
2023-02-21T20:24:01.411Z,11.00
2023-02-21T20:26:30.605Z,10.97
2023-02-21T20:28:59.325Z,10.98
2023-02-21T20:31:31.450Z,11.07
2023-02-21T20:34:03.633Z,11.18
2023-02-21T20:36:36.320Z,11.33
2023-02-21T20:39:18.533Z,11.43
2023-02-21T20:41:47.396Z,11.53
2023-02-21T20:44:15.967Z,11.67
2023-02-21T20:46:45.034Z,11.84
2023-02-21T20:49:14.294Z,11.88
2023-02-21T20:51:45.274Z,11.91
2023-02-21T20:54:21.980Z,12.08
2023-02-21T20:56:53.862Z,12.25
2023-02-21T20:59:41.672Z,12.31
2023-02-21T21:02:10.064Z,12.36
2023-02-21T21:04:43.098Z,12.40
2023-02-21T21:07:14.586Z,12.44
2023-02-21T21:09:44.599Z,12.49
2023-02-21T21:12:18.636Z,12.65
2023-02-21T21:14:49.245Z,12.77
2023-02-21T21:17:19.282Z,12.83
2023-02-21T21:19:49.249Z,12.76
2023-02-21T21:22:20.905Z,12.69
2023-02-21T21:24:51.566Z,12.45
2023-02-21T21:27:21.721Z,12.29
2023-02-21T21:29:51.597Z,12.15
2023-02-21T21:32:22.463Z,11.96
2023-02-21T21:34:53.319Z,11.77
2023-02-21T21:37:27.497Z,11.65
2023-02-21T21:39:56.653Z,11.50
2023-02-21T21:42:29.674Z,11.39
2023-02-21T21:44:57.887Z,11.19
2023-02-21T21:47:28.362Z,11.13
2023-02-21T21:49:56.451Z,11.03
2023-02-21T21:52:24.814Z,11.06
2023-02-21T21:54:53.099Z,11.08
2023-02-21T21:57:22.896Z,11.03
2023-02-21T21:59:51.301Z,11.00
2023-02-21T22:02:19.821Z,10.95
2023-02-21T22:04:48.397Z,10.94
2023-02-21T22:07:17.615Z,10.97
2023-02-21T22:09:46.539Z,11.03
2023-02-21T22:12:18.832Z,11.04
2023-02-21T22:14:50.125Z,11.05
2023-02-21T22:17:18.938Z,11.04
2023-02-21T22:19:47.739Z,11.00
2023-02-21T22:22:16.130Z,10.99
2023-02-21T22:24:44.371Z,11.00
2023-02-21T22:27:12.448Z,10.95
2023-02-21T22:29:40.771Z,10.90
2023-02-21T22:32:10.324Z,10.88
2023-02-21T22:34:38.699Z,10.97
2023-02-21T22:37:06.957Z,11.05
2023-02-21T22:39:35.145Z,11.15
2023-02-21T22:42:08.832Z,11.16
2023-02-21T22:44:37.852Z,11.11
2023-02-21T22:47:05.872Z,11.09
2023-02-21T22:49:34.594Z,11.08
2023-02-21T22:52:04.268Z,11.03
2023-02-21T22:54:32.587Z,10.96
2023-02-21T22:57:02.392Z,10.94
2023-02-21T22:59:30.902Z,10.92
2023-02-21T23:01:59.507Z,10.95
2023-02-21T23:04:28.012Z,10.94
2023-02-21T23:06:58.886Z,10.91
2023-02-21T23:09:29.583Z,10.93
2023-02-21T23:12:00.391Z,10.95
2023-02-21T23:14:34.858Z,11.02
2023-02-21T23:17:03.135Z,11.14
2023-02-21T23:19:32.282Z,11.28
2023-02-21T23:22:01.552Z,11.28
2023-02-21T23:24:29.858Z,11.27
2023-02-21T23:26:57.869Z,11.31
2023-02-21T23:29:26.673Z,11.43
2023-02-21T23:32:09.886Z,11.54
2023-02-21T23:34:41.405Z,11.58
2023-02-21T23:37:12.624Z,11.56
2023-02-21T23:39:42.236Z,11.60
2023-02-21T23:42:11.297Z,11.71
2023-02-21T23:44:39.809Z,11.61
2023-02-21T23:47:07.967Z,11.58
2023-02-21T23:49:44.312Z,11.61
2023-02-21T23:52:12.721Z,11.67
2023-02-21T23:54:40.903Z,11.63
2023-02-21T23:57:09.042Z,11.59
2023-02-21T23:59:37.306Z,11.55
